Baltimore/Inner Harbor, Maryland
Current Conditions -  °F | °C
As of 2:54 AM on Tuesday 21 Oct 2014 (Local Time) from KBWI Reporting Station
Broken Clouds Broken Clouds  
Wind Chill: 53°   Ceiling: 13000
Heat Index: 53°   Visibility: 10mi
Dew Point: 49°   Wind: 0mph
Humidity: 86%   Direction: NA
Pressure: 29.88"   Gusts: NA
Location:  39.28°N, 76.62°W
Report Text: KBWI 210654Z 00000KT 10SM FEW075 SCT110 BKN130 12/09 A2988 RMK AO2 RAE0558B27E36 SLP118 P0000 T01170094
Loading
Personal Weather Stations






























Interactive Weather Map
Tropical Storm Tracking
New forecast layout! Learn more

10-Day Weather Forecast

Advertisements
Track Severe Weather on mobile